Time;durP1;ratioP1;P1;durP2;ratioP2;P2;SDS_P1;SDS_P2;PMS_P1;PMS_P2;Temp;Humidity;BMP_temperature;BMP_pressure;BME280_temperature;BME280_humidity;BME280_pressure;Samples;Min_cycle;Max_cycle;Signal;HPM_P1;HPM_P2
2023/03/04 00:00:08;;;;;;;13.90;2.80;;;;;;;5.36;70.42;102503.00;5061597;28;20076;-72
2023/03/04 00:02:38;;;;;;;16.13;2.85;;;;;;;5.35;70.29;102497.75;5055565;28;20049;-72
2023/03/04 00:05:06;;;;;;;14.77;2.83;;;;;;;5.31;70.62;102496.81;5053845;28;20172;-72
2023/03/04 00:07:33;;;;;;;22.63;3.38;;;;;;;5.29;70.83;102502.03;5053914;28;20556;-71
2023/03/04 00:10:00;;;;;;;19.27;2.83;;;;;;;5.29;70.92;102498.53;5051266;28;20535;-71
2023/03/04 00:12:27;;;;;;;14.95;3.13;;;;;;;5.29;70.63;102491.56;5047733;28;20043;-71
2023/03/04 00:14:54;;;;;;;12.82;2.33;;;;;;;5.33;70.21;102492.50;5057267;28;20132;-71
2023/03/04 00:17:21;;;;;;;17.95;2.85;;;;;;;5.32;70.40;102490.72;5063784;28;20049;-71
2023/03/04 00:19:48;;;;;;;17.65;2.30;;;;;;;5.29;70.47;102488.94;5067860;28;20048;-70
2023/03/04 00:22:15;;;;;;;17.73;3.60;;;;;;;5.32;70.51;102493.34;5060643;28;20115;-71
2023/03/04 00:24:42;;;;;;;23.15;3.03;;;;;;;5.36;70.03;102491.66;5061689;28;20473;-71
2023/03/04 00:27:09;;;;;;;17.40;3.10;;;;;;;5.35;70.05;102495.13;5070333;28;20113;-70
2023/03/04 00:29:36;;;;;;;19.35;3.15;;;;;;;5.34;70.24;102496.88;5065706;28;20081;-70
2023/03/04 00:32:03;;;;;;;12.35;2.55;;;;;;;5.30;70.24;102495.03;5063385;28;20091;-70
2023/03/04 00:34:30;;;;;;;10.40;2.47;;;;;;;5.30;70.40;102489.81;5064521;28;20037;-70
2023/03/04 00:37:00;;;;;;;20.15;2.78;;;;;;;5.28;70.56;102494.16;5064081;28;20065;-72
2023/03/04 00:39:27;;;;;;;14.10;2.75;;;;;;;5.32;70.70;102484.63;5051925;28;20068;-72
2023/03/04 00:41:54;;;;;;;17.98;3.10;;;;;;;5.31;70.57;102483.72;5049069;28;20037;-71
2023/03/04 00:44:21;;;;;;;15.45;2.50;;;;;;;5.31;70.38;102483.72;5055014;28;20071;-71
2023/03/04 00:46:48;;;;;;;16.52;2.63;;;;;;;5.29;69.93;102485.47;5061817;28;21200;-71
2023/03/04 00:49:15;;;;;;;16.13;2.63;;;;;;;5.29;69.75;102486.34;5053101;28;20033;-71
2023/03/04 00:51:42;;;;;;;14.27;2.65;;;;;;;5.24;69.73;102479.25;5061959;28;20920;-71
2023/03/04 00:54:09;;;;;;;15.65;3.03;;;;;;;5.18;70.13;102487.88;5042197;28;20037;-71
2023/03/04 00:56:36;;;;;;;18.27;2.90;;;;;;;5.17;70.20;102487.84;5054597;28;21019;-71
2023/03/04 00:59:03;;;;;;;16.75;2.63;;;;;;;5.17;70.36;102493.94;5051138;28;20576;-71
2023/03/04 01:01:31;;;;;;;14.98;2.53;;;;;;;5.19;70.11;102491.38;5061880;28;20049;-72
2023/03/04 01:03:58;;;;;;;16.20;2.75;;;;;;;5.17;70.66;102501.78;5062283;28;20041;-71
2023/03/04 01:06:26;;;;;;;11.82;2.63;;;;;;;5.17;70.60;102488.72;5049251;28;20042;-72
2023/03/04 01:08:52;;;;;;;17.63;2.67;;;;;;;5.17;70.80;102493.94;5060137;28;20087;-72
2023/03/04 01:11:19;;;;;;;17.83;2.92;;;;;;;5.15;70.92;102489.53;5059725;28;20095;-72
2023/03/04 01:13:47;;;;;;;14.30;2.88;;;;;;;5.18;70.79;102487.00;5064644;28;20559;-71
2023/03/04 01:16:14;;;;;;;16.65;2.70;;;;;;;5.20;70.87;102498.34;5053605;28;20938;-71
2023/03/04 01:18:41;;;;;;;16.52;2.40;;;;;;;5.19;70.96;102494.00;5066356;28;20060;-71
2023/03/04 01:21:08;;;;;;;21.63;3.13;;;;;;;5.17;70.88;102493.94;5066319;28;20041;-70
2023/03/04 01:23:35;;;;;;;18.38;3.63;;;;;;;5.18;71.03;102490.47;5061128;28;20076;-70
2023/03/04 01:26:02;;;;;;;13.13;2.60;;;;;;;5.18;70.99;102495.72;5054405;28;20131;-71
2023/03/04 01:28:34;;;;;;;12.20;2.70;;;;;;;5.17;71.06;102490.47;5054730;28;20136;-70
2023/03/04 01:31:03;;;;;;;14.38;2.50;;;;;;;5.18;70.76;102485.25;5093813;28;20567;-70
2023/03/04 01:33:30;;;;;;;19.25;3.13;;;;;;;5.18;70.89;102490.47;5061951;28;20550;-70
2023/03/04 01:35:57;;;;;;;13.77;2.75;;;;;;;5.16;71.04;102484.34;5060922;28;20033;-70
2023/03/04 01:38:24;;;;;;;18.77;2.95;;;;;;;5.18;70.95;102487.00;5082623;28;20048;-70
2023/03/04 01:40:53;;;;;;;15.43;2.67;;;;;;;5.16;71.15;102476.50;5047713;28;20120;-72
2023/03/04 01:43:25;;;;;;;20.15;2.72;;;;;;;5.16;71.14;102478.22;5077708;28;20128;-70
2023/03/04 01:45:54;;;;;;;12.63;2.67;;;;;;;5.19;70.90;102470.47;5082677;28;20045;-70
2023/03/04 01:48:30;;;;;;;15.65;2.97;;;;;;;5.12;71.14;102467.72;5059186;28;20029;-70
2023/03/04 01:51:03;;;;;;;18.75;2.60;;;;;;;5.11;71.35;102470.31;5065041;28;20033;-70
2023/03/04 01:53:31;;;;;;;12.48;2.30;;;;;;;5.10;71.42;102469.41;5059249;28;20044;-70
2023/03/04 01:56:36;;;;;;;16.55;2.72;;;;;;;5.08;71.68;102460.69;5061480;28;20136;-69
2023/03/04 01:59:25;;;;;;;13.57;2.35;;;;;;;5.08;71.76;102468.53;5044047;28;20065;-70
2023/03/04 02:01:57;;;;;;;16.15;2.65;;;;;;;5.08;71.82;102457.16;5071455;28;20041;-71
2023/03/04 02:04:31;;;;;;;12.90;2.60;;;;;;;5.09;71.69;102454.56;5059739;28;20044;-70
2023/03/04 02:07:01;;;;;;;14.55;2.55;;;;;;;5.08;71.71;102454.56;5046279;28;20156;-71
2023/03/04 02:09:30;;;;;;;15.02;2.28;;;;;;;5.09;71.76;102449.34;5060496;28;20128;-71
2023/03/04 02:12:00;;;;;;;13.65;2.70;;;;;;;5.12;71.49;102448.53;5050249;28;20148;-72
2023/03/04 02:14:27;;;;;;;15.00;2.67;;;;;;;5.08;71.55;102445.00;5070580;28;20049;-70
2023/03/04 02:16:54;;;;;;;15.40;2.05;;;;;;;5.09;71.75;102440.63;5067313;28;20118;-70
2023/03/04 02:19:39;;;;;;;9.52;2.03;;;;;;;5.07;71.63;102443.22;5094802;28;20412;-71
2023/03/04 02:22:06;;;;;;;12.43;2.53;;;;;;;5.11;71.65;102438.94;5049974;28;20438;-70
2023/03/04 02:25:02;;;;;;;14.10;2.17;;;;;;;5.09;71.74;102435.41;5061355;28;20497;-70
2023/03/04 02:27:29;;;;;;;13.95;2.10;;;;;;;5.14;71.87;102441.59;5050031;28;20437;-70
2023/03/04 02:29:56;;;;;;;18.85;3.28;;;;;;;5.09;71.81;102440.63;5054103;28;20486;-70
2023/03/04 02:32:23;;;;;;;11.73;2.30;;;;;;;5.08;72.01;102439.78;5069501;28;20045;-70
2023/03/04 02:34:51;;;;;;;18.95;2.53;;;;;;;5.09;72.07;102428.44;5053624;28;20038;-70
2023/03/04 02:37:20;;;;;;;13.20;2.20;;;;;;;5.08;72.20;102438.88;5051500;28;20091;-70
2023/03/04 02:39:50;;;;;;;13.80;2.38;;;;;;;5.07;72.19;102424.94;5070687;28;20116;-70
2023/03/04 02:42:17;;;;;;;18.17;2.38;;;;;;;5.07;72.38;102426.66;5055741;28;20042;-73
2023/03/04 02:44:49;;;;;;;15.32;2.63;;;;;;;5.06;72.37;102420.56;5049517;28;20033;-71
2023/03/04 02:47:18;;;;;;;11.73;2.33;;;;;;;5.06;72.41;102433.63;5081503;28;20037;-70
2023/03/04 02:49:46;;;;;;;13.68;2.42;;;;;;;5.06;72.50;102430.13;5063376;28;20044;-72
2023/03/04 02:52:20;;;;;;;10.05;2.22;;;;;;;5.03;72.79;102425.72;5064018;28;20072;-70
2023/03/04 02:54:47;;;;;;;14.68;2.30;;;;;;;5.03;72.67;102422.25;5075251;28;20041;-71
2023/03/04 02:57:16;;;;;;;12.85;2.30;;;;;;;5.03;72.66;102422.25;5072788;28;20520;-70
2023/03/04 02:59:46;;;;;;;10.40;2.08;;;;;;;5.00;72.93;102419.56;5068193;28;20045;-70
2023/03/04 03:02:18;;;;;;;13.02;2.40;;;;;;;5.00;72.88;102416.94;5091178;28;20152;-70
2023/03/04 03:04:45;;;;;;;15.18;2.80;;;;;;;5.00;73.09;102412.59;5051776;28;20786;-70
2023/03/04 03:07:15;;;;;;;10.45;1.83;;;;;;;5.06;72.85;102412.72;5053731;28;20045;-70
2023/03/04 03:09:42;;;;;;;11.63;2.05;;;;;;;5.04;73.03;102410.91;5067077;28;20529;-71
2023/03/04 03:12:09;;;;;;;12.25;2.85;;;;;;;5.01;73.20;102403.88;5062992;28;20064;-70
2023/03/04 03:14:37;;;;;;;12.90;2.05;;;;;;;5.03;73.21;102407.41;5053735;28;20037;-71
2023/03/04 03:17:05;;;;;;;10.10;1.95;;;;;;;5.01;73.35;102405.63;5047709;28;20046;-71
2023/03/04 03:19:32;;;;;;;13.45;2.28;;;;;;;5.00;73.56;102406.50;5062651;28;20045;-70
2023/03/04 03:22:02;;;;;;;12.40;2.28;;;;;;;5.04;73.70;102403.06;5032830;28;20041;-70
2023/03/04 03:24:29;;;;;;;14.90;2.45;;;;;;;5.00;73.61;102398.66;5061688;28;20048;-72
2023/03/04 03:26:56;;;;;;;13.30;2.53;;;;;;;4.96;73.71;102395.09;5048780;28;20042;-71
2023/03/04 03:29:23;;;;;;;9.50;1.85;;;;;;;4.95;73.93;102388.97;5063754;28;20120;-71
2023/03/04 03:31:50;;;;;;;14.80;1.83;;;;;;;4.97;74.07;102400.34;5071544;28;20044;-71
2023/03/04 03:34:19;;;;;;;14.70;2.20;;;;;;;4.95;73.89;102391.59;5065439;28;20091;-71
2023/03/04 03:36:47;;;;;;;17.45;2.13;;;;;;;4.95;73.99;102399.44;5064880;28;20073;-71
2023/03/04 03:39:14;;;;;;;17.13;2.20;;;;;;;4.99;73.79;102400.38;5031887;28;20056;-71
2023/03/04 03:41:41;;;;;;;16.70;2.47;;;;;;;4.98;73.74;102401.25;5060973;28;20048;-70
2023/03/04 03:44:08;;;;;;;15.05;2.05;;;;;;;5.01;73.29;102392.56;5062349;28;20050;-72
2023/03/04 03:46:35;;;;;;;13.20;2.20;;;;;;;5.02;73.39;102394.34;5063346;28;20129;-71
2023/03/04 03:49:02;;;;;;;9.80;1.70;;;;;;;5.02;73.02;102396.94;5057681;28;20038;-71
2023/03/04 03:51:29;;;;;;;11.95;2.17;;;;;;;5.00;73.22;102391.66;5057291;28;20556;-71
2023/03/04 03:53:56;;;;;;;12.98;2.35;;;;;;;4.95;73.24;102391.59;5051917;28;20069;-71
2023/03/04 03:56:23;;;;;;;8.75;1.88;;;;;;;4.92;73.58;102391.56;5055573;28;20120;-71
2023/03/04 03:58:50;;;;;;;13.45;2.05;;;;;;;4.93;73.63;102395.94;5099291;28;20126;-71
2023/03/04 04:01:17;;;;;;;15.43;2.08;;;;;;;4.94;73.60;102394.19;5058991;28;21049;-71
2023/03/04 04:03:44;;;;;;;13.90;2.47;;;;;;;4.95;73.60;102396.81;5066049;28;20533;-71
2023/03/04 04:06:11;;;;;;;15.52;2.08;;;;;;;4.94;73.74;102392.44;5065394;28;20042;-70
2023/03/04 04:08:38;;;;;;;12.30;1.70;;;;;;;4.96;73.50;102395.09;5061718;28;20636;-70
2023/03/04 04:11:05;;;;;;;10.40;1.90;;;;;;;4.97;73.21;102391.63;5061572;28;20049;-70
2023/03/04 04:13:31;;;;;;;8.82;1.98;;;;;;;4.98;73.18;102386.44;5049129;28;20041;-70
2023/03/04 04:15:58;;;;;;;13.23;2.20;;;;;;;5.02;73.13;102402.19;5053120;28;20037;-70
2023/03/04 04:18:25;;;;;;;16.98;2.03;;;;;;;5.00;73.24;102388.19;5056440;28;20445;-70
2023/03/04 04:20:53;;;;;;;10.63;1.75;;;;;;;4.97;73.12;102389.88;5057829;28;20563;-70
2023/03/04 04:23:20;;;;;;;8.90;1.73;;;;;;;5.00;72.90;102380.34;5059600;28;20529;-71
2023/03/04 04:25:47;;;;;;;14.85;2.30;;;;;;;4.98;73.12;102383.81;5060152;28;20064;-71
2023/03/04 04:28:14;;;;;;;13.45;1.77;;;;;;;4.98;73.17;102385.56;5066798;28;20085;-71
2023/03/04 04:30:41;;;;;;;12.20;1.85;;;;;;;5.00;73.09;102396.03;5053645;28;20124;-71
2023/03/04 04:33:09;;;;;;;13.60;2.17;;;;;;;5.00;73.04;102389.06;5047215;28;20040;-70
2023/03/04 04:35:39;;;;;;;15.52;2.13;;;;;;;5.00;73.08;102393.41;5060476;28;20049;-71
2023/03/04 04:38:08;;;;;;;12.57;2.00;;;;;;;4.99;73.18;102389.91;5066952;28;20044;-70
2023/03/04 04:40:36;;;;;;;12.70;2.42;;;;;;;5.00;73.25;102396.03;5062549;28;20037;-71
2023/03/04 04:43:03;;;;;;;16.95;2.40;;;;;;;5.02;73.30;102394.34;5057616;28;20041;-70
2023/03/04 04:45:30;;;;;;;10.43;1.88;;;;;;;5.02;73.30;102391.72;5058238;28;20050;-71
2023/03/04 04:47:57;;;;;;;13.10;1.75;;;;;;;5.02;73.33;102397.81;5054830;28;20037;-71
2023/03/04 04:50:24;;;;;;;11.82;1.70;;;;;;;5.02;73.79;102403.03;5062374;28;20691;-71
2023/03/04 04:52:51;;;;;;;15.48;2.45;;;;;;;5.02;73.50;102394.34;5064521;28;20490;-71
2023/03/04 04:55:18;;;;;;;19.42;2.83;;;;;;;5.01;73.61;102395.19;5061309;28;20045;-70
2023/03/04 04:57:45;;;;;;;15.07;1.55;;;;;;;5.03;73.60;102396.97;5046752;28;20029;-70
2023/03/04 05:00:13;;;;;;;10.55;2.60;;;;;;;5.00;73.74;102404.75;5057105;28;20598;-71
2023/03/04 05:02:40;;;;;;;12.68;2.10;;;;;;;5.07;73.26;102411.88;5063782;28;20888;-71
2023/03/04 05:05:07;;;;;;;12.40;2.10;;;;;;;5.07;73.14;102408.34;5053013;28;20038;-72
2023/03/04 05:07:35;;;;;;;14.48;2.15;;;;;;;5.10;72.77;102404.06;5073631;28;20053;-72
2023/03/04 05:10:03;;;;;;;8.55;1.60;;;;;;;5.05;72.93;102400.50;5060054;28;20135;-72
2023/03/04 05:12:30;;;;;;;11.48;2.33;;;;;;;5.03;72.70;102403.94;5066500;28;20040;-71
2023/03/04 05:14:57;;;;;;;20.73;2.80;;;;;;;5.03;72.82;102402.19;5064122;28;20044;-72
2023/03/04 05:17:24;;;;;;;10.88;2.17;;;;;;;5.06;72.41;102398.75;5067447;28;20041;-73
2023/03/04 05:19:51;;;;;;;10.35;1.77;;;;;;;5.04;72.46;102398.72;5079263;28;20041;-73
2023/03/04 05:22:18;;;;;;;7.95;1.70;;;;;;;5.03;72.74;102399.56;5046523;28;20072;-72
2023/03/04 05:24:45;;;;;;;8.23;1.70;;;;;;;5.02;72.78;102391.72;5063335;28;20103;-71
2023/03/04 05:27:12;;;;;;;11.82;1.90;;;;;;;4.98;73.15;102396.88;5064121;28;20488;-71
2023/03/04 05:29:39;;;;;;;8.73;1.75;;;;;;;4.97;73.24;102397.72;5062861;28;20989;-72
2023/03/04 05:32:06;;;;;;;13.95;1.85;;;;;;;4.97;73.28;102395.13;5046893;28;20116;-71
2023/03/04 05:34:32;;;;;;;13.15;1.90;;;;;;;4.96;73.52;102400.34;5074748;28;20037;-71
2023/03/04 05:36:59;;;;;;;13.02;1.90;;;;;;;4.96;73.76;102401.19;5060883;28;20121;-70
2023/03/04 05:39:26;;;;;;;11.65;1.70;;;;;;;4.95;73.77;102396.81;5051956;28;20037;-70
2023/03/04 05:41:58;;;;;;;12.07;1.75;;;;;;;4.94;73.80;102399.41;5051081;28;20037;-71
2023/03/04 05:44:24;;;;;;;9.43;1.48;;;;;;;4.96;73.87;102397.72;5057911;28;20045;-73
2023/03/04 05:46:51;;;;;;;9.45;1.42;;;;;;;4.96;73.86;102401.19;5045831;28;20045;-71
2023/03/04 05:49:19;;;;;;;9.43;1.50;;;;;;;4.96;74.10;102398.59;5041680;28;20041;-74
2023/03/04 05:51:46;;;;;;;15.02;1.85;;;;;;;4.96;74.14;102408.16;5076376;28;20594;-73
2023/03/04 05:54:13;;;;;;;10.07;1.45;;;;;;;4.94;74.10;102397.66;5059784;28;20037;-71
2023/03/04 05:56:40;;;;;;;10.02;1.67;;;;;;;4.94;74.47;102394.19;5063228;28;20115;-72
2023/03/04 05:59:07;;;;;;;12.85;1.52;;;;;;;4.96;74.53;102402.94;5066911;28;20041;-73
2023/03/04 06:01:34;;;;;;;10.35;1.48;;;;;;;4.97;74.76;102400.34;5060322;28;20126;-71
2023/03/04 06:04:01;;;;;;;10.05;1.77;;;;;;;4.96;74.87;102409.03;5065255;28;20133;-70
2023/03/04 06:06:28;;;;;;;13.18;2.15;;;;;;;4.94;74.92;102404.66;5084424;28;20048;-71
2023/03/04 06:08:55;;;;;;;9.23;1.40;;;;;;;4.93;75.12;102406.38;5066792;28;20036;-71
2023/03/04 06:11:22;;;;;;;9.40;1.50;;;;;;;4.91;75.23;102408.09;5067026;28;20083;-71
2023/03/04 06:13:49;;;;;;;9.00;1.58;;;;;;;4.91;75.27;102413.31;5061896;28;20053;-69
2023/03/04 06:16:16;;;;;;;8.48;1.67;;;;;;;4.92;75.75;102411.56;5053351;28;20029;-73
2023/03/04 06:18:43;;;;;;;13.20;2.00;;;;;;;4.92;75.88;102408.94;5063818;28;20745;-74
2023/03/04 06:21:10;;;;;;;13.20;1.80;;;;;;;4.91;75.90;102410.69;5060055;28;20514;-73
2023/03/04 06:23:37;;;;;;;15.40;2.40;;;;;;;4.91;76.04;102408.09;5066832;28;20036;-72
2023/03/04 06:26:08;;;;;;;11.55;1.70;;;;;;;4.93;76.11;102419.47;5063801;28;20037;-74
2023/03/04 06:28:35;;;;;;;10.23;1.98;;;;;;;4.92;76.68;102422.91;5065905;28;20053;-71
2023/03/04 06:31:02;;;;;;;12.00;1.88;;;;;;;4.93;76.74;102413.34;5062245;28;20091;-71
2023/03/04 06:33:29;;;;;;;9.40;1.77;;;;;;;4.92;76.76;102416.78;5067168;28;20088;-71
2023/03/04 06:35:57;;;;;;;11.90;1.65;;;;;;;4.94;77.00;102415.09;5079908;28;20115;-71
2023/03/04 06:38:25;;;;;;;11.32;2.17;;;;;;;4.94;77.12;102434.25;5062032;28;20522;-71
2023/03/04 06:40:53;;;;;;;10.45;1.95;;;;;;;4.92;77.24;102427.25;5078244;28;20122;-71
2023/03/04 06:43:23;;;;;;;10.15;2.40;;;;;;;4.89;77.29;102429.78;5066031;28;20037;-71
2023/03/04 06:45:50;;;;;;;12.82;1.80;;;;;;;4.87;77.55;102434.13;5062178;28;20087;-71
2023/03/04 06:48:17;;;;;;;11.95;1.83;;;;;;;4.85;77.78;102426.25;5064003;28;20591;-71
2023/03/04 06:50:44;;;;;;;10.00;1.63;;;;;;;4.79;77.86;102429.63;5062793;28;20046;-71
2023/03/04 06:53:11;;;;;;;8.27;1.85;;;;;;;4.78;78.17;102429.59;5060223;28;20029;-71
2023/03/04 06:55:40;;;;;;;9.00;1.60;;;;;;;4.74;78.45;102433.91;5061183;28;20045;-71
2023/03/04 06:58:08;;;;;;;14.30;2.00;;;;;;;4.77;78.81;102433.06;5065201;28;20041;-72
2023/03/04 07:00:38;;;;;;;13.43;2.40;;;;;;;4.76;78.71;102432.19;5064266;28;20527;-72
2023/03/04 07:03:05;;;;;;;12.93;1.85;;;;;;;4.80;78.87;102431.38;5064611;28;20088;-72
2023/03/04 07:05:33;;;;;;;11.20;1.90;;;;;;;4.84;78.91;102421.88;5064495;28;20493;-70
2023/03/04 07:08:00;;;;;;;10.38;2.03;;;;;;;4.88;78.91;102425.44;5058047;28;20164;-71
2023/03/04 07:10:27;;;;;;;11.13;2.33;;;;;;;4.89;78.91;102432.41;5059945;28;20037;-70
2023/03/04 07:12:55;;;;;;;15.20;2.38;;;;;;;4.91;78.94;102421.16;5058918;28;20537;-70
2023/03/04 07:15:22;;;;;;;11.10;1.63;;;;;;;4.94;78.97;102429.03;5064584;28;20509;-71
2023/03/04 07:17:49;;;;;;;15.20;2.45;;;;;;;5.00;79.06;102433.50;5062390;28;20116;-72
2023/03/04 07:20:16;;;;;;;8.75;1.67;;;;;;;5.04;78.68;102434.44;5064206;28;20092;-70
2023/03/04 07:22:43;;;;;;;11.35;1.63;;;;;;;5.09;78.90;102438.03;5061135;28;20083;-70
2023/03/04 07:25:11;;;;;;;8.73;1.67;;;;;;;5.14;78.83;102433.75;5063961;28;20088;-69
2023/03/04 07:27:39;;;;;;;9.55;1.70;;;;;;;5.18;78.64;102439.94;5066775;28;20049;-69
2023/03/04 07:30:07;;;;;;;12.90;2.13;;;;;;;5.20;78.47;102441.72;5058450;28;20099;-73
2023/03/04 07:32:34;;;;;;;11.00;1.88;;;;;;;5.23;78.42;102449.63;5074728;28;20029;-70
2023/03/04 07:35:02;;;;;;;9.65;1.83;;;;;;;5.26;78.10;102447.03;5058693;28;20095;-69
2023/03/04 07:37:29;;;;;;;10.63;1.77;;;;;;;5.31;78.30;102449.72;5067842;28;20103;-69
2023/03/04 07:39:56;;;;;;;14.20;2.22;;;;;;;5.36;78.25;102449.81;5060017;28;20044;-69
2023/03/04 07:42:23;;;;;;;9.23;2.10;;;;;;;5.42;77.88;102449.94;5061835;28;20053;-69
2023/03/04 07:45:00;;;;;;;6.78;1.80;;;;;;;5.49;77.76;102450.91;5066896;28;20034;-68
2023/03/04 07:47:27;;;;;;;10.15;2.10;;;;;;;5.57;77.76;102450.16;5059032;28;20041;-69
2023/03/04 07:49:55;;;;;;;8.50;1.63;;;;;;;5.69;76.82;102448.63;5055836;28;20545;-69
2023/03/04 07:52:22;;;;;;;7.72;1.85;;;;;;;5.73;76.46;102453.91;5062870;28;20047;-69
2023/03/04 07:54:49;;;;;;;8.48;2.08;;;;;;;5.78;76.25;102453.13;5055936;28;20045;-70
2023/03/04 07:57:16;;;;;;;9.85;2.08;;;;;;;5.79;76.05;102460.97;5052488;28;20037;-70
2023/03/04 07:59:43;;;;;;;10.57;1.90;;;;;;;5.82;76.31;102450.56;5057266;28;20139;-69
2023/03/04 08:02:10;;;;;;;12.52;1.83;;;;;;;5.87;76.31;102461.97;5063162;28;20069;-69
2023/03/04 08:04:38;;;;;;;7.88;1.70;;;;;;;5.99;76.07;102466.56;5063283;28;20527;-69
2023/03/04 08:07:06;;;;;;;7.55;1.73;;;;;;;6.05;76.19;102464.03;5050319;28;20525;-69
2023/03/04 08:09:33;;;;;;;4.22;1.60;;;;;;;6.10;76.09;102464.09;5072756;28;20037;-70
2023/03/04 08:12:01;;;;;;;11.73;2.05;;;;;;;6.12;76.43;102464.09;5053867;28;20052;-70
2023/03/04 08:14:28;;;;;;;7.35;1.77;;;;;;;6.10;76.75;102466.72;5065590;28;20059;-69
2023/03/04 08:16:55;;;;;;;10.48;2.15;;;;;;;6.10;76.75;102468.47;5047339;28;20042;-69
2023/03/04 08:19:22;;;;;;;12.15;2.20;;;;;;;6.12;76.78;102469.34;5055959;28;20112;-69
2023/03/04 08:21:52;;;;;;;12.35;1.60;;;;;;;6.16;77.08;102474.66;5053644;28;20509;-69
2023/03/04 08:24:19;;;;;;;9.43;1.70;;;;;;;6.22;76.79;102471.22;5065588;28;20143;-70
2023/03/04 08:26:49;;;;;;;5.75;1.30;;;;;;;6.25;76.77;102470.41;5051804;28;20485;-69
2023/03/04 08:29:21;;;;;;;12.00;1.67;;;;;;;6.27;76.67;102473.91;5059885;28;20104;-69
2023/03/04 08:31:49;;;;;;;8.38;1.80;;;;;;;6.35;76.39;102482.78;5052610;28;20467;-69
2023/03/04 08:34:24;;;;;;;9.85;1.60;;;;;;;6.39;76.19;102465.38;5056472;28;20115;-69
2023/03/04 08:36:51;;;;;;;13.93;2.22;;;;;;;6.50;75.54;102466.38;5080272;27;20069;-74
2023/03/04 08:39:19;;;;;;;10.65;1.85;;;;;;;6.55;75.95;102464.69;5061651;28;20500;-70
2023/03/04 08:41:47;;;;;;;7.72;1.65;;;;;;;6.67;75.02;102474.44;5054757;28;20061;-70
2023/03/04 08:44:15;;;;;;;11.07;2.15;;;;;;;6.77;74.94;102467.56;5064482;28;20033;-69
2023/03/04 08:46:42;;;;;;;15.52;1.77;;;;;;;6.86;74.91;102470.28;5061428;28;20783;-67
2023/03/04 08:49:11;;;;;;;9.48;1.50;;;;;;;6.95;74.82;102474.78;5056724;28;20050;-70
2023/03/04 08:51:38;;;;;;;8.45;1.52;;;;;;;6.97;74.61;102473.91;5054675;28;20503;-71
2023/03/04 08:54:05;;;;;;;7.15;1.63;;;;;;;6.98;75.13;102482.66;5082080;28;20075;-71
2023/03/04 08:56:32;;;;;;;10.57;1.60;;;;;;;6.92;75.83;102472.09;5059569;28;20046;-69
2023/03/04 08:58:59;;;;;;;7.38;1.85;;;;;;;6.97;75.93;102476.53;5059494;28;20599;-69
2023/03/04 09:01:26;;;;;;;8.57;2.42;;;;;;;7.07;75.94;102474.00;5047168;28;20042;-69
2023/03/04 09:03:53;;;;;;;7.93;2.17;;;;;;;7.16;76.08;102474.09;5064546;28;20037;-69
2023/03/04 09:06:20;;;;;;;5.53;2.17;;;;;;;7.23;75.96;102464.56;5061448;28;20044;-71
2023/03/04 09:08:47;;;;;;;6.88;1.40;;;;;;;7.23;75.52;102462.81;5060205;28;20032;-71
2023/03/04 09:11:15;;;;;;;9.20;2.38;;;;;;;7.27;74.99;102464.59;5052109;28;20524;-71
2023/03/04 09:13:42;;;;;;;9.07;1.52;;;;;;;7.23;75.35;102459.31;5054387;28;20034;-71
2023/03/04 09:16:13;;;;;;;7.93;1.40;;;;;;;7.23;75.54;102456.69;5055049;28;20044;-71
2023/03/04 09:18:41;;;;;;;15.60;2.80;;;;;;;7.25;75.76;102461.06;5057607;28;20060;-69
2023/03/04 09:21:10;;;;;;;6.93;1.27;;;;;;;7.29;74.80;102457.63;5057428;28;20540;-70
2023/03/04 09:23:37;;;;;;;9.10;2.00;;;;;;;7.36;75.19;102453.31;5052046;28;20122;-70
2023/03/04 09:26:25;;;;;;;10.25;2.00;;;;;;;7.41;74.80;102448.97;5062536;28;20108;-70
2023/03/04 09:28:56;;;;;;;5.18;1.33;;;;;;;7.49;74.57;102449.06;5039315;28;20071;-69
2023/03/04 09:31:25;;;;;;;8.25;2.05;;;;;;;7.52;74.74;102446.47;5055415;28;21087;-70
2023/03/04 09:33:54;;;;;;;7.13;1.80;;;;;;;7.55;74.30;102446.47;5052731;28;20064;-70
2023/03/04 09:36:22;;;;;;;6.75;1.40;;;;;;;7.44;74.29;102437.63;5055712;28;20607;-70
2023/03/04 09:38:49;;;;;;;10.07;2.05;;;;;;;7.37;74.62;102448.94;5059480;28;20048;-69
2023/03/04 09:41:25;;;;;;;6.28;1.55;;;;;;;7.36;74.70;102442.81;5056118;28;20469;-70
2023/03/04 09:43:54;;;;;;;6.50;1.17;;;;;;;7.49;74.92;102440.28;5052498;28;20052;-71
2023/03/04 09:46:37;;;;;;;6.22;1.48;;;;;;;7.70;73.83;102439.59;5056828;28;20990;-69
2023/03/04 09:49:04;;;;;;;4.90;1.00;;;;;;;7.73;73.48;102435.22;5040960;28;20045;-71
2023/03/04 09:51:58;;;;;;;8.82;1.88;;;;;;;7.78;73.91;102435.25;5050654;28;20046;-71
2023/03/04 09:55:04;;;;;;;7.40;1.60;;;;;;;7.90;73.78;102435.34;5057730;28;20048;-70
2023/03/04 09:57:57;;;;;;;5.28;1.23;;;;;;;8.04;72.99;102432.81;5064480;28;20524;-71
2023/03/04 10:00:43;;;;;;;7.43;2.03;;;;;;;8.02;72.40;102433.69;5059614;28;20507;-70
2023/03/04 10:03:39;;;;;;;9.00;1.50;;;;;;;7.89;72.82;102432.69;5050064;28;20044;-70
2023/03/04 10:06:19;;;;;;;5.40;1.15;;;;;;;7.81;72.79;102437.91;5055032;28;20052;-70
2023/03/04 10:09:01;;;;;;;7.45;1.83;;;;;;;7.68;73.36;102438.69;5050351;28;20613;-71
2023/03/04 10:11:41;;;;;;;8.70;1.92;;;;;;;7.57;73.73;102434.25;5048646;28;20040;-71
2023/03/04 10:14:20;;;;;;;6.00;1.27;;;;;;;7.53;74.34;102429.81;5053833;28;20060;-71
2023/03/04 10:17:11;;;;;;;3.60;1.23;;;;;;;7.51;74.57;102430.69;5046936;28;20041;-71
2023/03/04 10:19:56;;;;;;;3.35;1.10;;;;;;;7.53;74.74;102434.22;5051247;28;20037;-71
2023/03/04 10:22:40;;;;;;;4.65;1.70;;;;;;;7.68;74.36;102426.44;5051977;28;20632;-71
2023/03/04 10:25:19;;;;;;;6.60;1.38;;;;;;;7.77;73.87;102420.38;5064541;28;20033;-71
2023/03/04 10:28:06;;;;;;;11.18;2.17;;;;;;;7.76;73.71;102424.75;5046944;28;20080;-72
2023/03/04 10:30:48;;;;;;;5.28;1.23;;;;;;;7.68;74.10;102442.19;5057185;28;20044;-71
2023/03/04 10:33:25;;;;;;;4.68;2.03;;;;;;;7.55;75.63;102432.47;5053646;28;20523;-71
2023/03/04 10:36:04;;;;;;;5.38;1.60;;;;;;;7.40;76.85;102449.84;5059206;28;20041;-71
2023/03/04 10:38:40;;;;;;;7.45;1.60;;;;;;;7.35;76.71;102438.44;5061757;28;20939;-72
2023/03/04 10:41:19;;;;;;;6.28;2.10;;;;;;;7.37;77.29;102441.97;5070808;28;20045;-71
2023/03/04 10:44:02;;;;;;;3.83;1.50;;;;;;;7.44;77.31;102435.00;5064079;28;20037;-71
2023/03/04 10:46:31;;;;;;;12.02;2.53;;;;;;;7.51;77.43;102436.81;5079031;28;20140;-71
2023/03/04 10:48:58;;;;;;;7.30;2.05;;;;;;;7.61;77.11;102425.53;5064722;28;20049;-70
2023/03/04 10:51:28;;;;;;;9.07;1.40;;;;;;;7.76;77.38;102421.25;5051894;28;20034;-70
2023/03/04 10:54:25;;;;;;;6.53;1.92;;;;;;;7.95;76.66;102413.47;5063068;28;20042;-70
2023/03/04 10:56:57;;;;;;;3.47;0.95;;;;;;;8.15;76.61;102418.84;5066790;28;20041;-70
2023/03/04 10:59:35;;;;;;;4.95;1.13;;;;;;;8.31;75.59;102410.16;5063066;28;20033;-70
2023/03/04 11:02:26;;;;;;;3.55;1.10;;;;;;;8.38;75.37;102409.34;5053311;28;20557;-71
2023/03/04 11:04:56;;;;;;;8.50;1.40;;;;;;;8.40;74.96;102412.81;5057840;28;20047;-70
2023/03/04 11:07:26;;;;;;;2.20;1.23;;;;;;;8.51;74.96;102405.03;5054455;28;20047;-70
2023/03/04 11:09:53;;;;;;;3.45;1.33;;;;;;;8.66;75.08;102412.09;5062692;28;20124;-70
2023/03/04 11:12:33;;;;;;;2.95;1.10;;;;;;;8.80;74.33;102403.34;5082010;28;20529;-70
2023/03/04 11:15:02;;;;;;;9.15;2.72;;;;;;;8.87;74.41;102402.50;5067879;28;20041;-70
2023/03/04 11:17:45;;;;;;;8.43;1.52;;;;;;;8.98;73.16;102397.22;5052600;28;20046;-70
2023/03/04 11:20:32;;;;;;;5.10;1.20;;;;;;;9.01;72.54;102387.59;5056468;28;20128;-70
2023/03/04 11:23:13;;;;;;;4.20;1.27;;;;;;;9.04;72.48;102376.22;5081497;28;20044;-71
2023/03/04 11:25:47;;;;;;;5.10;1.33;;;;;;;9.03;72.24;102379.72;5065889;28;20037;-70
2023/03/04 11:28:36;;;;;;;3.70;1.00;;;;;;;8.90;71.93;102380.56;5045451;28;20136;-71
2023/03/04 11:31:15;;;;;;;4.53;0.90;;;;;;;8.69;72.08;102375.28;5049567;28;20655;-70
2023/03/04 11:34:26;;;;;;;3.10;0.90;;;;;;;8.54;72.08;102378.75;5053838;28;20044;-70
2023/03/04 11:37:14;;;;;;;4.00;1.48;;;;;;;8.48;72.70;102367.34;5048867;28;20053;-69
2023/03/04 11:39:53;;;;;;;5.13;0.88;;;;;;;8.52;72.60;102369.97;5057336;28;20041;-70
2023/03/04 11:42:39;;;;;;;2.30;0.95;;;;;;;8.64;72.26;102379.63;5060539;28;20056;-71